sensor_id;sensor_type;location;lat;lon;timestamp;pressure;altitude;pressure_sealevel;temperature;humidity
54924;BME280;40825;52.270;20.984;2023-10-08T00:02:04;100162.09;;;10.40;92.82
54924;BME280;40825;52.270;20.984;2023-10-08T00:04:33;100151.58;;;10.40;92.79
54924;BME280;40825;52.270;20.984;2023-10-08T00:07:05;100143.85;;;10.39;93.92
54924;BME280;40825;52.270;20.984;2023-10-08T00:09:35;100143.33;;;10.39;94.86
54924;BME280;40825;52.270;20.984;2023-10-08T00:12:05;100142.34;;;10.39;94.88
54924;BME280;40825;52.270;20.984;2023-10-08T00:14:33;100134.20;;;10.37;94.30
54924;BME280;40825;52.270;20.984;2023-10-08T00:17:11;100136.61;;;10.36;94.46
54924;BME280;40825;52.270;20.984;2023-10-08T00:19:36;100141.58;;;10.36;94.49
54924;BME280;40825;52.270;20.984;2023-10-08T00:22:04;100141.13;;;10.37;94.70
54924;BME280;40825;52.270;20.984;2023-10-08T00:24:35;100136.20;;;10.38;94.33
54924;BME280;40825;52.270;20.984;2023-10-08T00:27:03;100135.02;;;10.39;94.83
54924;BME280;40825;52.270;20.984;2023-10-08T00:29:32;100128.13;;;10.38;95.11
54924;BME280;40825;52.270;20.984;2023-10-08T00:31:58;100126.80;;;10.36;95.13
54924;BME280;40825;52.270;20.984;2023-10-08T00:34:24;100130.33;;;10.35;95.19
54924;BME280;40825;52.270;20.984;2023-10-08T00:36:50;100135.67;;;10.35;94.71
54924;BME280;40825;52.270;20.984;2023-10-08T00:39:17;100142.56;;;10.35;94.32
54924;BME280;40825;52.270;20.984;2023-10-08T00:41:50;100138.66;;;10.35;94.28
54924;BME280;40825;52.270;20.984;2023-10-08T00:44:16;100140.31;;;10.36;94.07
54924;BME280;40825;52.270;20.984;2023-10-08T00:46:51;100138.88;;;10.36;94.32
54924;BME280;40825;52.270;20.984;2023-10-08T00:49:27;100136.01;;;10.36;94.62
54924;BME280;40825;52.270;20.984;2023-10-08T00:52:13;100118.78;;;10.33;94.85
54924;BME280;40825;52.270;20.984;2023-10-08T00:54:41;100117.25;;;10.31;94.80
54924;BME280;40825;52.270;20.984;2023-10-08T00:57:27;100115.81;;;10.31;95.19
54924;BME280;40825;52.270;20.984;2023-10-08T00:59:56;100113.47;;;10.30;96.00
54924;BME280;40825;52.270;20.984;2023-10-08T01:02:52;100121.77;;;10.34;95.40
54924;BME280;40825;52.270;20.984;2023-10-08T01:05:26;100133.77;;;10.33;95.26
54924;BME280;40825;52.270;20.984;2023-10-08T01:08:22;100130.88;;;10.32;95.52
54924;BME280;40825;52.270;20.984;2023-10-08T01:11:16;100124.05;;;10.31;95.37
54924;BME280;40825;52.270;20.984;2023-10-08T01:13:42;100125.92;;;10.29;95.67
54924;BME280;40825;52.270;20.984;2023-10-08T01:16:11;100133.89;;;10.29;95.79
54924;BME280;40825;52.270;20.984;2023-10-08T01:18:36;100127.30;;;10.29;96.25
54924;BME280;40825;52.270;20.984;2023-10-08T01:21:02;100113.05;;;10.29;96.29
54924;BME280;40825;52.270;20.984;2023-10-08T01:23:36;100117.99;;;10.25;96.31
54924;BME280;40825;52.270;20.984;2023-10-08T01:26:04;100132.47;;;10.25;96.46
54924;BME280;40825;52.270;20.984;2023-10-08T01:28:37;100128.64;;;10.22;98.01
54924;BME280;40825;52.270;20.984;2023-10-08T01:31:02;100113.03;;;10.20;96.86
54924;BME280;40825;52.270;20.984;2023-10-08T01:33:30;100109.36;;;10.18;97.56
54924;BME280;40825;52.270;20.984;2023-10-08T01:35:56;100110.77;;;10.18;97.13
54924;BME280;40825;52.270;20.984;2023-10-08T01:38:30;100118.98;;;10.19;96.59
54924;BME280;40825;52.270;20.984;2023-10-08T01:40:59;100120.05;;;10.21;96.74
54924;BME280;40825;52.270;20.984;2023-10-08T01:43:30;100124.49;;;10.22;96.46
54924;BME280;40825;52.270;20.984;2023-10-08T01:45:56;100126.30;;;10.21;96.29
54924;BME280;40825;52.270;20.984;2023-10-08T01:48:22;100137.45;;;10.21;96.17
54924;BME280;40825;52.270;20.984;2023-10-08T01:50:59;100152.31;;;10.22;96.79
54924;BME280;40825;52.270;20.984;2023-10-08T01:53:29;100155.19;;;10.21;96.32
54924;BME280;40825;52.270;20.984;2023-10-08T01:55:56;100166.80;;;10.21;96.76
54924;BME280;40825;52.270;20.984;2023-10-08T01:58:23;100161.27;;;10.23;96.34
54924;BME280;40825;52.270;20.984;2023-10-08T02:00:49;100154.22;;;10.23;96.27
54924;BME280;40825;52.270;20.984;2023-10-08T02:03:17;100150.79;;;10.24;97.57
54924;BME280;40825;52.270;20.984;2023-10-08T02:05:46;100158.73;;;10.24;97.72
54924;BME280;40825;52.270;20.984;2023-10-08T02:08:12;100153.57;;;10.24;97.13
54924;BME280;40825;52.270;20.984;2023-10-08T02:10:40;100148.14;;;10.22;97.21
54924;BME280;40825;52.270;20.984;2023-10-08T02:13:07;100155.33;;;10.22;97.12
54924;BME280;40825;52.270;20.984;2023-10-08T02:15:35;100155.80;;;10.22;96.97
54924;BME280;40825;52.270;20.984;2023-10-08T02:18:02;100156.95;;;10.21;97.26
54924;BME280;40825;52.270;20.984;2023-10-08T02:20:29;100161.15;;;10.22;96.96
54924;BME280;40825;52.270;20.984;2023-10-08T02:22:55;100160.77;;;10.19;97.06
54924;BME280;40825;52.270;20.984;2023-10-08T02:25:20;100160.08;;;10.16;96.86
54924;BME280;40825;52.270;20.984;2023-10-08T02:27:46;100162.45;;;10.14;97.10
54924;BME280;40825;52.270;20.984;2023-10-08T02:30:13;100162.97;;;10.13;97.26
54924;BME280;40825;52.270;20.984;2023-10-08T02:32:39;100170.30;;;10.10;97.65
54924;BME280;40825;52.270;20.984;2023-10-08T02:35:09;100187.52;;;10.09;97.70
54924;BME280;40825;52.270;20.984;2023-10-08T02:37:39;100193.08;;;10.07;97.67
54924;BME280;40825;52.270;20.984;2023-10-08T02:40:09;100194.04;;;10.08;97.62
54924;BME280;40825;52.270;20.984;2023-10-08T02:42:54;100197.48;;;10.07;98.02
54924;BME280;40825;52.270;20.984;2023-10-08T02:45:27;100204.73;;;10.06;97.77
54924;BME280;40825;52.270;20.984;2023-10-08T02:47:53;100211.50;;;10.06;97.39
54924;BME280;40825;52.270;20.984;2023-10-08T02:50:20;100213.52;;;10.06;96.99
54924;BME280;40825;52.270;20.984;2023-10-08T02:52:50;100209.36;;;10.05;97.11
54924;BME280;40825;52.270;20.984;2023-10-08T02:55:17;100216.29;;;10.03;97.99
54924;BME280;40825;52.270;20.984;2023-10-08T02:58:16;100222.18;;;10.03;97.24
54924;BME280;40825;52.270;20.984;2023-10-08T03:00:45;100217.73;;;10.01;97.51
54924;BME280;40825;52.270;20.984;2023-10-08T03:03:18;100219.88;;;10.01;97.40
54924;BME280;40825;52.270;20.984;2023-10-08T03:05:49;100223.77;;;10.02;97.24
54924;BME280;40825;52.270;20.984;2023-10-08T03:08:18;100217.47;;;10.02;97.25
54924;BME280;40825;52.270;20.984;2023-10-08T03:10:49;100211.88;;;10.01;97.00
54924;BME280;40825;52.270;20.984;2023-10-08T03:13:23;100211.84;;;9.99;97.13
54924;BME280;40825;52.270;20.984;2023-10-08T03:15:51;100221.31;;;9.97;96.88
54924;BME280;40825;52.270;20.984;2023-10-08T03:18:27;100228.98;;;9.97;96.30
54924;BME280;40825;52.270;20.984;2023-10-08T03:21:07;100231.83;;;9.94;95.33
54924;BME280;40825;52.270;20.984;2023-10-08T03:24:02;100230.70;;;9.91;95.01
54924;BME280;40825;52.270;20.984;2023-10-08T03:26:32;100229.05;;;9.90;94.31
54924;BME280;40825;52.270;20.984;2023-10-08T03:29:00;100229.30;;;9.91;94.37
54924;BME280;40825;52.270;20.984;2023-10-08T03:31:30;100239.42;;;9.90;94.13
54924;BME280;40825;52.270;20.984;2023-10-08T03:34:15;100243.63;;;9.87;92.46
54924;BME280;40825;52.270;20.984;2023-10-08T03:36:43;100251.24;;;9.86;91.65
54924;BME280;40825;52.270;20.984;2023-10-08T03:39:10;100257.59;;;9.85;91.69
54924;BME280;40825;52.270;20.984;2023-10-08T03:41:40;100258.33;;;9.85;91.34
54924;BME280;40825;52.270;20.984;2023-10-08T03:44:07;100259.91;;;9.84;90.07
54924;BME280;40825;52.270;20.984;2023-10-08T03:46:39;100259.90;;;9.82;90.35
54924;BME280;40825;52.270;20.984;2023-10-08T03:49:11;100269.58;;;9.82;88.47
54924;BME280;40825;52.270;20.984;2023-10-08T03:51:52;100271.98;;;9.81;89.22
54924;BME280;40825;52.270;20.984;2023-10-08T03:54:18;100272.91;;;9.79;89.04
54924;BME280;40825;52.270;20.984;2023-10-08T03:56:45;100277.57;;;9.77;87.58
54924;BME280;40825;52.270;20.984;2023-10-08T03:59:17;100287.79;;;9.75;87.43
54924;BME280;40825;52.270;20.984;2023-10-08T04:01:59;100294.36;;;9.72;86.21
54924;BME280;40825;52.270;20.984;2023-10-08T04:04:50;100297.36;;;9.69;85.42
54924;BME280;40825;52.270;20.984;2023-10-08T04:07:25;100301.67;;;9.66;85.23
54924;BME280;40825;52.270;20.984;2023-10-08T04:10:01;100306.02;;;9.62;83.10
54924;BME280;40825;52.270;20.984;2023-10-08T04:12:33;100309.27;;;9.59;84.24
54924;BME280;40825;52.270;20.984;2023-10-08T04:15:09;100311.63;;;9.56;83.43
54924;BME280;40825;52.270;20.984;2023-10-08T04:17:35;100314.96;;;9.52;83.09
54924;BME280;40825;52.270;20.984;2023-10-08T04:20:11;100319.68;;;9.49;83.41
54924;BME280;40825;52.270;20.984;2023-10-08T04:22:57;100323.67;;;9.47;83.41
54924;BME280;40825;52.270;20.984;2023-10-08T04:25:26;100337.07;;;9.43;82.65
54924;BME280;40825;52.270;20.984;2023-10-08T04:27:55;100344.02;;;9.42;82.94
54924;BME280;40825;52.270;20.984;2023-10-08T04:30:34;100347.02;;;9.39;82.66
54924;BME280;40825;52.270;20.984;2023-10-08T04:33:05;100348.78;;;9.36;81.63
54924;BME280;40825;52.270;20.984;2023-10-08T04:35:38;100354.10;;;9.33;81.50
54924;BME280;40825;52.270;20.984;2023-10-08T04:38:30;100358.38;;;9.27;80.75
54924;BME280;40825;52.270;20.984;2023-10-08T04:41:02;100358.60;;;9.24;81.90
54924;BME280;40825;52.270;20.984;2023-10-08T04:43:34;100363.08;;;9.20;80.91
54924;BME280;40825;52.270;20.984;2023-10-08T04:46:03;100360.27;;;9.17;81.74
54924;BME280;40825;52.270;20.984;2023-10-08T04:48:50;100364.65;;;9.13;81.79
54924;BME280;40825;52.270;20.984;2023-10-08T04:51:16;100369.36;;;9.07;81.20
54924;BME280;40825;52.270;20.984;2023-10-08T04:53:43;100374.87;;;9.03;80.44
54924;BME280;40825;52.270;20.984;2023-10-08T04:56:12;100381.77;;;9.00;81.07
54924;BME280;40825;52.270;20.984;2023-10-08T04:58:49;100386.40;;;8.97;80.90
54924;BME280;40825;52.270;20.984;2023-10-08T05:01:16;100392.34;;;8.94;81.09
54924;BME280;40825;52.270;20.984;2023-10-08T05:03:50;100391.45;;;8.92;80.51
54924;BME280;40825;52.270;20.984;2023-10-08T05:06:29;100394.61;;;8.87;80.85
54924;BME280;40825;52.270;20.984;2023-10-08T05:09:03;100396.59;;;8.84;80.17
54924;BME280;40825;52.270;20.984;2023-10-08T05:11:45;100397.73;;;8.78;79.54
54924;BME280;40825;52.270;20.984;2023-10-08T05:14:17;100399.17;;;8.75;80.23
54924;BME280;40825;52.270;20.984;2023-10-08T05:17:07;100405.17;;;8.73;79.07
54924;BME280;40825;52.270;20.984;2023-10-08T05:19:40;100410.91;;;8.71;79.58
54924;BME280;40825;52.270;20.984;2023-10-08T05:22:10;100420.55;;;8.70;79.66
54924;BME280;40825;52.270;20.984;2023-10-08T05:24:46;100420.30;;;8.69;79.13
54924;BME280;40825;52.270;20.984;2023-10-08T05:27:34;100424.60;;;8.69;79.65
54924;BME280;40825;52.270;20.984;2023-10-08T05:30:16;100427.21;;;8.69;79.14
54924;BME280;40825;52.270;20.984;2023-10-08T05:32:55;100434.90;;;8.70;79.82
54924;BME280;40825;52.270;20.984;2023-10-08T05:35:35;100440.02;;;8.70;79.34
54924;BME280;40825;52.270;20.984;2023-10-08T05:38:04;100443.19;;;8.71;79.14
54924;BME280;40825;52.270;20.984;2023-10-08T05:40:42;100450.40;;;8.70;79.18
54924;BME280;40825;52.270;20.984;2023-10-08T05:43:34;100455.02;;;8.68;79.10
54924;BME280;40825;52.270;20.984;2023-10-08T05:46:10;100462.35;;;8.71;79.40
54924;BME280;40825;52.270;20.984;2023-10-08T05:48:49;100473.96;;;8.72;78.79
54924;BME280;40825;52.270;20.984;2023-10-08T05:51:40;100479.02;;;8.74;78.52
54924;BME280;40825;52.270;20.984;2023-10-08T05:54:30;100491.55;;;8.76;78.40
54924;BME280;40825;52.270;20.984;2023-10-08T05:57:04;100491.27;;;8.78;78.00
54924;BME280;40825;52.270;20.984;2023-10-08T05:59:42;100498.92;;;8.83;77.98
54924;BME280;40825;52.270;20.984;2023-10-08T06:02:20;100504.83;;;8.92;77.67
54924;BME280;40825;52.270;20.984;2023-10-08T06:05:01;100512.24;;;9.06;77.34
54924;BME280;40825;52.270;20.984;2023-10-08T06:07:53;100520.58;;;9.14;76.35
54924;BME280;40825;52.270;20.984;2023-10-08T06:15:39;100531.05;;;9.28;74.19
54924;BME280;40825;52.270;20.984;2023-10-08T06:18:34;100540.85;;;9.46;72.86
54924;BME280;40825;52.270;20.984;2023-10-08T06:21:02;100543.31;;;9.65;72.66
54924;BME280;40825;52.270;20.984;2023-10-08T06:23:36;100546.38;;;9.92;70.18
54924;BME280;40825;52.270;20.984;2023-10-08T06:26:02;100557.76;;;10.31;69.83
54924;BME280;40825;52.270;20.984;2023-10-08T06:28:41;100563.48;;;10.56;70.58
54924;BME280;40825;52.270;20.984;2023-10-08T06:31:08;100568.27;;;10.73;69.46
54924;BME280;40825;52.270;20.984;2023-10-08T06:33:41;100572.27;;;11.00;67.40
54924;BME280;40825;52.270;20.984;2023-10-08T06:36:07;100575.03;;;11.37;66.98
54924;BME280;40825;52.270;20.984;2023-10-08T06:38:45;100578.88;;;11.91;67.15
54924;BME280;40825;52.270;20.984;2023-10-08T06:41:14;100584.80;;;12.34;66.24
54924;BME280;40825;52.270;20.984;2023-10-08T06:43:48;100587.61;;;12.54;65.61
54924;BME280;40825;52.270;20.984;2023-10-08T06:46:39;100591.38;;;12.94;66.33
54924;BME280;40825;52.270;20.984;2023-10-08T06:49:07;100599.02;;;13.33;66.89
54924;BME280;40825;52.270;20.984;2023-10-08T06:51:38;100605.36;;;13.66;60.42
54924;BME280;40825;52.270;20.984;2023-10-08T06:54:04;100613.41;;;13.87;58.13
54924;BME280;40825;52.270;20.984;2023-10-08T06:56:29;100613.03;;;13.95;57.36
54924;BME280;40825;52.270;20.984;2023-10-08T06:58:57;100622.46;;;13.81;59.40
54924;BME280;40825;52.270;20.984;2023-10-08T07:01:24;100623.41;;;13.43;61.81
54924;BME280;40825;52.270;20.984;2023-10-08T07:03:51;100620.79;;;13.11;59.18
54924;BME280;40825;52.270;20.984;2023-10-08T07:06:20;100628.05;;;12.77;57.57
54924;BME280;40825;52.270;20.984;2023-10-08T07:08:52;100637.39;;;12.35;56.67
54924;BME280;40825;52.270;20.984;2023-10-08T07:11:21;100638.39;;;12.00;57.44
54924;BME280;40825;52.270;20.984;2023-10-08T07:13:48;100646.83;;;11.79;57.30
54924;BME280;40825;52.270;20.984;2023-10-08T07:16:14;100644.08;;;11.48;57.23
54924;BME280;40825;52.270;20.984;2023-10-08T07:18:43;100646.59;;;11.29;56.71
54924;BME280;40825;52.270;20.984;2023-10-08T07:21:20;100653.59;;;11.15;56.53
54924;BME280;40825;52.270;20.984;2023-10-08T07:23:54;100657.27;;;10.91;57.23
54924;BME280;40825;52.270;20.984;2023-10-08T07:26:25;100654.83;;;10.75;57.56
54924;BME280;40825;52.270;20.984;2023-10-08T07:28:52;100659.46;;;10.63;56.81
54924;BME280;40825;52.270;20.984;2023-10-08T07:31:20;100663.41;;;10.54;56.36
54924;BME280;40825;52.270;20.984;2023-10-08T07:33:51;100670.34;;;10.46;56.23
54924;BME280;40825;52.270;20.984;2023-10-08T07:36:54;100676.58;;;10.42;56.65
54924;BME280;40825;52.270;20.984;2023-10-08T07:39:21;100681.36;;;10.33;55.90
54924;BME280;40825;52.270;20.984;2023-10-08T07:41:50;100688.81;;;10.30;55.82
54924;BME280;40825;52.270;20.984;2023-10-08T07:44:16;100689.44;;;10.25;54.85
54924;BME280;40825;52.270;20.984;2023-10-08T07:46:49;100689.23;;;10.17;55.35
54924;BME280;40825;52.270;20.984;2023-10-08T07:49:16;100697.48;;;10.12;55.65
54924;BME280;40825;52.270;20.984;2023-10-08T07:51:42;100703.14;;;10.06;55.83
54924;BME280;40825;52.270;20.984;2023-10-08T07:54:23;100702.28;;;9.98;55.45
54924;BME280;40825;52.270;20.984;2023-10-08T07:56:50;100705.36;;;9.96;55.73
54924;BME280;40825;52.270;20.984;2023-10-08T07:59:39;100703.24;;;9.94;55.50
54924;BME280;40825;52.270;20.984;2023-10-08T08:02:08;100702.11;;;9.93;55.81
54924;BME280;40825;52.270;20.984;2023-10-08T08:04:50;100703.59;;;9.98;55.94
54924;BME280;40825;52.270;20.984;2023-10-08T08:07:16;100708.80;;;10.00;55.45
54924;BME280;40825;52.270;20.984;2023-10-08T08:09:43;100711.55;;;10.01;55.86
54924;BME280;40825;52.270;20.984;2023-10-08T08:12:19;100716.52;;;10.01;55.21
54924;BME280;40825;52.270;20.984;2023-10-08T08:14:47;100716.52;;;9.98;54.84
54924;BME280;40825;52.270;20.984;2023-10-08T08:17:14;100722.13;;;9.99;54.64
54924;BME280;40825;52.270;20.984;2023-10-08T08:19:44;100725.35;;;9.94;54.16
54924;BME280;40825;52.270;20.984;2023-10-08T08:22:11;100730.11;;;9.94;54.72
54924;BME280;40825;52.270;20.984;2023-10-08T08:24:57;100728.70;;;9.91;53.65
54924;BME280;40825;52.270;20.984;2023-10-08T08:27:41;100738.05;;;9.93;54.01
54924;BME280;40825;52.270;20.984;2023-10-08T08:30:09;100739.17;;;9.96;53.91
54924;BME280;40825;52.270;20.984;2023-10-08T08:32:37;100746.20;;;10.01;54.10
54924;BME280;40825;52.270;20.984;2023-10-08T08:35:05;100744.23;;;10.06;53.27
54924;BME280;40825;52.270;20.984;2023-10-08T08:37:33;100743.09;;;10.10;54.19
54924;BME280;40825;52.270;20.984;2023-10-08T08:40:07;100745.47;;;10.17;53.48
54924;BME280;40825;52.270;20.984;2023-10-08T08:42:47;100741.17;;;10.23;52.42
54924;BME280;40825;52.270;20.984;2023-10-08T08:45:15;100745.61;;;10.31;52.47
54924;BME280;40825;52.270;20.984;2023-10-08T08:47:43;100748.53;;;10.33;53.00
54924;BME280;40825;52.270;20.984;2023-10-08T08:50:10;100746.63;;;10.35;52.83
54924;BME280;40825;52.270;20.984;2023-10-08T08:52:37;100746.50;;;10.32;51.41
54924;BME280;40825;52.270;20.984;2023-10-08T08:55:07;100747.96;;;10.29;52.15
54924;BME280;40825;52.270;20.984;2023-10-08T08:57:43;100749.64;;;10.29;52.82
54924;BME280;40825;52.270;20.984;2023-10-08T09:00:13;100751.81;;;10.36;53.67
54924;BME280;40825;52.270;20.984;2023-10-08T09:02:40;100760.84;;;10.46;53.44
54924;BME280;40825;52.270;20.984;2023-10-08T09:05:07;100758.11;;;10.54;52.08
54924;BME280;40825;52.270;20.984;2023-10-08T09:08:04;100766.69;;;10.56;51.66
54924;BME280;40825;52.270;20.984;2023-10-08T09:10:34;100774.88;;;10.55;51.09
54924;BME280;40825;52.270;20.984;2023-10-08T09:13:07;100774.15;;;10.48;50.52
54924;BME280;40825;52.270;20.984;2023-10-08T09:15:34;100772.05;;;10.41;50.46
54924;BME280;40825;52.270;20.984;2023-10-08T09:18:02;100773.63;;;10.43;50.51
54924;BME280;40825;52.270;20.984;2023-10-08T09:20:34;100772.93;;;10.49;51.36
54924;BME280;40825;52.270;20.984;2023-10-08T09:23:10;100776.38;;;10.59;51.15
54924;BME280;40825;52.270;20.984;2023-10-08T09:25:40;100775.01;;;10.69;50.97
54924;BME280;40825;52.270;20.984;2023-10-08T09:28:06;100777.23;;;10.82;51.11
54924;BME280;40825;52.270;20.984;2023-10-08T09:30:39;100780.92;;;10.94;50.36
54924;BME280;40825;52.270;20.984;2023-10-08T09:33:09;100783.48;;;11.00;49.55
54924;BME280;40825;52.270;20.984;2023-10-08T09:35:35;100786.38;;;11.01;49.13
54924;BME280;40825;52.270;20.984;2023-10-08T09:38:07;100788.81;;;11.06;50.15
54924;BME280;40825;52.270;20.984;2023-10-08T09:40:37;100791.89;;;11.15;49.56
54924;BME280;40825;52.270;20.984;2023-10-08T09:43:04;100792.08;;;11.26;48.81
54924;BME280;40825;52.270;20.984;2023-10-08T09:45:30;100793.77;;;11.31;48.95
54924;BME280;40825;52.270;20.984;2023-10-08T09:47:56;100798.04;;;11.32;49.14
54924;BME280;40825;52.270;20.984;2023-10-08T09:50:28;100804.07;;;11.38;49.76
54924;BME280;40825;52.270;20.984;2023-10-08T09:55:24;100811.33;;;11.56;49.41
54924;BME280;40825;52.270;20.984;2023-10-08T09:57:51;100811.39;;;11.48;48.25
54924;BME280;40825;52.270;20.984;2023-10-08T10:00:27;100806.52;;;11.44;48.14
54924;BME280;40825;52.270;20.984;2023-10-08T10:02:59;100808.77;;;11.49;48.49
54924;BME280;40825;52.270;20.984;2023-10-08T10:05:32;100813.05;;;11.52;47.74
54924;BME280;40825;52.270;20.984;2023-10-08T10:07:58;100819.79;;;11.48;46.90
54924;BME280;40825;52.270;20.984;2023-10-08T10:10:32;100814.70;;;11.46;47.57
54924;BME280;40825;52.270;20.984;2023-10-08T10:13:10;100816.11;;;11.48;47.44
54924;BME280;40825;52.270;20.984;2023-10-08T10:15:36;100817.14;;;11.47;47.85
54924;BME280;40825;52.270;20.984;2023-10-08T10:20:39;100810.66;;;11.59;47.86
54924;BME280;40825;52.270;20.984;2023-10-08T10:23:39;100812.42;;;11.58;48.09
54924;BME280;40825;52.270;20.984;2023-10-08T10:26:31;100810.76;;;11.60;47.52
54924;BME280;40825;52.270;20.984;2023-10-08T10:31:54;100821.09;;;11.53;46.69
54924;BME280;40825;52.270;20.984;2023-10-08T10:34:22;100817.48;;;11.45;45.80
54924;BME280;40825;52.270;20.984;2023-10-08T10:36:49;100813.98;;;11.38;45.02
54924;BME280;40825;52.270;20.984;2023-10-08T10:39:20;100822.02;;;11.31;44.60
54924;BME280;40825;52.270;20.984;2023-10-08T10:42:00;100818.40;;;11.30;44.46
54924;BME280;40825;52.270;20.984;2023-10-08T10:44:34;100813.71;;;11.31;44.62
54924;BME280;40825;52.270;20.984;2023-10-08T10:47:03;100824.45;;;11.33;44.28
54924;BME280;40825;52.270;20.984;2023-10-08T10:49:48;100820.77;;;11.33;44.40
54924;BME280;40825;52.270;20.984;2023-10-08T10:52:41;100815.63;;;11.29;43.99
54924;BME280;40825;52.270;20.984;2023-10-08T10:55:15;100819.69;;;11.28;44.51
54924;BME280;40825;52.270;20.984;2023-10-08T10:57:44;100812.96;;;11.26;45.19
54924;BME280;40825;52.270;20.984;2023-10-08T11:00:19;100816.67;;;11.28;44.97
54924;BME280;40825;52.270;20.984;2023-10-08T11:02:57;100814.80;;;11.29;45.26
54924;BME280;40825;52.270;20.984;2023-10-08T11:05:29;100818.43;;;11.30;44.88
54924;BME280;40825;52.270;20.984;2023-10-08T11:07:57;100821.80;;;11.32;44.49
54924;BME280;40825;52.270;20.984;2023-10-08T11:10:35;100826.48;;;11.31;44.04
54924;BME280;40825;52.270;20.984;2023-10-08T11:13:15;100828.92;;;11.27;43.75
54924;BME280;40825;52.270;20.984;2023-10-08T11:15:50;100829.08;;;11.25;43.36
54924;BME280;40825;52.270;20.984;2023-10-08T11:18:19;100825.95;;;11.30;43.20
54924;BME280;40825;52.270;20.984;2023-10-08T11:20:47;100834.23;;;11.33;43.17
54924;BME280;40825;52.270;20.984;2023-10-08T11:23:37;100837.77;;;11.42;43.03
54924;BME280;40825;52.270;20.984;2023-10-08T11:26:07;100835.16;;;11.48;42.38
54924;BME280;40825;52.270;20.984;2023-10-08T11:28:37;100839.93;;;11.54;41.93
54924;BME280;40825;52.270;20.984;2023-10-08T11:31:17;100845.51;;;11.56;41.70
54924;BME280;40825;52.270;20.984;2023-10-08T11:33:47;100841.77;;;11.57;41.36
54924;BME280;40825;52.270;20.984;2023-10-08T11:36:23;100845.59;;;11.53;40.15
54924;BME280;40825;52.270;20.984;2023-10-08T11:39:12;100846.02;;;11.51;39.57
54924;BME280;40825;52.270;20.984;2023-10-08T11:42:00;100844.29;;;11.53;40.75
54924;BME280;40825;52.270;20.984;2023-10-08T11:44:32;100838.90;;;11.64;41.14
54924;BME280;40825;52.270;20.984;2023-10-08T11:47:04;100831.98;;;11.73;40.22
54924;BME280;40825;52.270;20.984;2023-10-08T11:49:38;100838.15;;;11.78;40.36
54924;BME280;40825;52.270;20.984;2023-10-08T11:52:12;100837.46;;;11.79;39.84
54924;BME280;40825;52.270;20.984;2023-10-08T11:54:44;100838.29;;;11.75;39.93
54924;BME280;40825;52.270;20.984;2023-10-08T11:57:12;100845.70;;;11.82;39.99
54924;BME280;40825;52.270;20.984;2023-10-08T11:59:39;100850.58;;;11.81;38.43
54924;BME280;40825;52.270;20.984;2023-10-08T12:02:06;100853.10;;;11.78;38.65
54924;BME280;40825;52.270;20.984;2023-10-08T12:04:32;100852.36;;;11.74;39.18
54924;BME280;40825;52.270;20.984;2023-10-08T12:06:58;100853.31;;;11.76;39.38
54924;BME280;40825;52.270;20.984;2023-10-08T12:09:32;100850.30;;;11.79;39.96
54924;BME280;40825;52.270;20.984;2023-10-08T12:12:04;100850.30;;;11.92;39.64
54924;BME280;40825;52.270;20.984;2023-10-08T12:14:36;100848.27;;;12.02;39.65
54924;BME280;40825;52.270;20.984;2023-10-08T12:17:04;100846.69;;;12.06;38.32
54924;BME280;40825;52.270;20.984;2023-10-08T12:19:39;100846.59;;;12.05;37.25
54924;BME280;40825;52.270;20.984;2023-10-08T12:22:08;100850.29;;;11.92;36.69
54924;BME280;40825;52.270;20.984;2023-10-08T12:24:34;100856.76;;;11.82;37.04
54924;BME280;40825;52.270;20.984;2023-10-08T12:27:00;100862.44;;;11.70;36.78
54924;BME280;40825;52.270;20.984;2023-10-08T12:29:28;100858.69;;;11.60;36.41
54924;BME280;40825;52.270;20.984;2023-10-08T12:31:56;100867.70;;;11.51;36.69
54924;BME280;40825;52.270;20.984;2023-10-08T12:34:25;100870.20;;;11.44;36.87
54924;BME280;40825;52.270;20.984;2023-10-08T12:36:53;100869.59;;;11.42;36.88
54924;BME280;40825;52.270;20.984;2023-10-08T12:39:19;100864.72;;;11.47;37.37
54924;BME280;40825;52.270;20.984;2023-10-08T12:41:50;100860.52;;;11.59;37.67
54924;BME280;40825;52.270;20.984;2023-10-08T12:44:18;100864.57;;;11.67;36.88
54924;BME280;40825;52.270;20.984;2023-10-08T12:46:44;100872.29;;;11.68;36.47
54924;BME280;40825;52.270;20.984;2023-10-08T12:49:14;100867.98;;;11.60;36.77
54924;BME280;40825;52.270;20.984;2023-10-08T12:51:39;100869.52;;;11.51;36.88
54924;BME280;40825;52.270;20.984;2023-10-08T12:54:07;100868.65;;;11.45;37.22
54924;BME280;40825;52.270;20.984;2023-10-08T12:56:36;100871.73;;;11.48;37.37
54924;BME280;40825;52.270;20.984;2023-10-08T12:59:10;100880.20;;;11.58;37.60
54924;BME280;40825;52.270;20.984;2023-10-08T13:01:46;100875.02;;;11.64;37.31
54924;BME280;40825;52.270;20.984;2023-10-08T13:04:17;100873.48;;;11.69;37.87
54924;BME280;40825;52.270;20.984;2023-10-08T13:06:51;100869.26;;;11.77;37.88
54924;BME280;40825;52.270;20.984;2023-10-08T13:09:17;100870.64;;;11.89;37.24
54924;BME280;40825;52.270;20.984;2023-10-08T13:11:42;100875.84;;;11.95;37.09
54924;BME280;40825;52.270;20.984;2023-10-08T13:14:08;100875.60;;;11.98;36.83
54924;BME280;40825;52.270;20.984;2023-10-08T13:16:34;100889.98;;;11.96;37.30
54924;BME280;40825;52.270;20.984;2023-10-08T13:19:03;100891.45;;;11.93;37.43
54924;BME280;40825;52.270;20.984;2023-10-08T13:21:30;100894.27;;;11.89;37.56
54924;BME280;40825;52.270;20.984;2023-10-08T13:24:00;100893.56;;;11.83;37.20